Time;durP1;ratioP1;P1;durP2;ratioP2;P2;SDS_P1;SDS_P2;PMS_P1;PMS_P2;Temp;Humidity;BMP_temperature;BMP_pressure;BME280_temperature;BME280_humidity;BME280_pressure;Samples;Min_cycle;Max_cycle;Signal;HPM_P1;HPM_P2
2022/01/31 00:00:14;;;;;;;10.82;4.47;;;;;;;3.68;94.25;101428.69;5092135;28;20048;-44
2022/01/31 00:02:43;;;;;;;14.02;4.78;;;;;;;3.64;94.15;101417.53;5092458;28;20032;-45
2022/01/31 00:05:13;;;;;;;18.73;5.53;;;;;;;3.64;94.49;101414.94;5094030;28;20055;-44
2022/01/31 00:07:41;;;;;;;15.45;5.22;;;;;;;3.67;94.23;101401.00;5096066;28;20123;-50
2022/01/31 00:10:12;;;;;;;17.63;5.28;;;;;;;3.68;94.64;101382.72;5095858;28;20082;-44
2022/01/31 00:12:49;;;;;;;18.70;5.47;;;;;;;3.70;94.66;101387.88;5095494;28;20051;-50
2022/01/31 00:15:19;;;;;;;14.85;5.10;;;;;;;3.73;94.34;101375.63;5095281;28;20044;-48
2022/01/31 00:17:47;;;;;;;17.15;4.85;;;;;;;3.76;94.60;101368.66;5094672;28;20044;-49
2022/01/31 00:20:16;;;;;;;15.23;5.55;;;;;;;3.74;95.03;101355.69;5091175;28;20051;-47
2022/01/31 00:22:45;;;;;;;19.05;5.57;;;;;;;3.78;94.88;101338.25;5090799;28;20075;-47
2022/01/31 00:25:13;;;;;;;17.48;5.57;;;;;;;3.75;95.20;101328.78;5095369;28;20506;-43
2022/01/31 00:27:42;;;;;;;14.40;5.50;;;;;;;3.78;95.21;101330.44;5095225;28;20044;-48
2022/01/31 00:30:11;;;;;;;18.23;5.60;;;;;;;3.77;95.11;101308.75;5093980;28;20071;-55
2022/01/31 00:32:39;;;;;;;17.25;5.32;;;;;;;3.80;95.04;101293.06;5095315;28;20129;-56
2022/01/31 00:35:08;;;;;;;17.98;5.93;;;;;;;3.89;94.77;101279.78;5095157;28;20145;-57
2022/01/31 00:37:38;;;;;;;16.00;5.35;;;;;;;3.83;95.31;101266.97;5092052;28;20036;-56
2022/01/31 00:40:08;;;;;;;17.48;5.15;;;;;;;3.84;95.36;101254.78;5091788;28;20040;-56
2022/01/31 00:42:36;;;;;;;16.98;5.05;;;;;;;3.86;95.68;101232.19;5095390;28;20378;-56
2022/01/31 00:45:12;;;;;;;15.65;5.40;;;;;;;3.92;96.08;101229.38;5095166;28;20036;-56
2022/01/31 00:47:44;;;;;;;16.08;5.03;;;;;;;3.90;97.37;101215.56;5095143;28;20044;-56
2022/01/31 00:50:15;;;;;;;17.67;5.22;;;;;;;3.84;99.19;101206.19;5095115;28;20486;-46
2022/01/31 00:52:45;;;;;;;13.10;5.63;;;;;;;3.74;100.00;101207.38;5095450;28;20070;-54
2022/01/31 00:55:14;;;;;;;12.98;4.82;;;;;;;3.72;100.00;101191.81;5095016;28;20502;-56
2022/01/31 00:57:43;;;;;;;19.23;5.82;;;;;;;3.71;100.00;101189.28;5095174;28;20047;-56
2022/01/31 01:00:12;;;;;;;15.90;6.03;;;;;;;3.72;100.00;101170.16;5095226;28;20051;-56
2022/01/31 01:02:41;;;;;;;18.05;5.30;;;;;;;3.65;100.00;101173.84;5095080;28;20117;-56
2022/01/31 01:05:10;;;;;;;14.52;5.68;;;;;;;3.70;100.00;101149.38;5094756;28;20119;-56
2022/01/31 01:07:38;;;;;;;17.15;5.25;;;;;;;3.71;100.00;101139.84;5093164;28;20567;-54
2022/01/31 01:10:08;;;;;;;20.15;5.70;;;;;;;3.66;100.00;101136.53;5089761;28;20044;-56
2022/01/31 01:12:36;;;;;;;18.05;5.93;;;;;;;3.62;100.00;101121.94;5093064;28;20047;-56
2022/01/31 01:15:05;;;;;;;17.83;5.18;;;;;;;3.64;100.00;101117.50;5094460;28;20093;-55
2022/01/31 01:17:33;;;;;;;18.73;6.18;;;;;;;3.59;100.00;101099.47;5093453;28;20047;-54
2022/01/31 01:20:02;;;;;;;15.38;5.45;;;;;;;3.55;100.00;101084.84;5093819;28;20143;-55
2022/01/31 01:22:30;;;;;;;17.50;5.45;;;;;;;3.55;100.00;101083.09;5094439;28;20097;-53
2022/01/31 01:24:59;;;;;;;17.45;5.72;;;;;;;3.47;100.00;101082.50;5094272;28;20044;-55
2022/01/31 01:27:31;;;;;;;19.08;5.63;;;;;;;3.51;100.00;101057.25;5094390;28;20060;-54
2022/01/31 01:29:59;;;;;;;21.05;6.10;;;;;;;3.49;100.00;101054.69;5094270;28;20052;-54
2022/01/31 01:32:32;;;;;;;15.45;6.70;;;;;;;3.42;100.00;101053.16;5094183;28;20040;-55
2022/01/31 01:35:03;;;;;;;23.85;6.50;;;;;;;3.36;100.00;101035.19;5094417;28;20048;-55
2022/01/31 01:37:32;;;;;;;23.13;6.83;;;;;;;3.37;100.00;101022.13;5109985;28;20048;-49
2022/01/31 01:40:00;;;;;;;17.25;6.05;;;;;;;3.39;100.00;101014.28;5094026;28;20522;-50
2022/01/31 01:42:28;;;;;;;19.67;6.88;;;;;;;3.36;100.00;101012.63;5094134;28;20040;-46
2022/01/31 01:44:57;;;;;;;19.17;6.65;;;;;;;3.36;100.00;101003.97;5093672;28;20040;-49
2022/01/31 01:47:26;;;;;;;17.13;6.72;;;;;;;3.38;100.00;101007.38;5093140;28;20087;-48
2022/01/31 01:49:54;;;;;;;16.17;6.93;;;;;;;3.35;100.00;101004.88;5093548;28;20509;-47
2022/01/31 01:52:24;;;;;;;14.38;6.18;;;;;;;3.31;100.00;100996.34;5094045;28;20110;-51
2022/01/31 01:54:52;;;;;;;14.82;6.25;;;;;;;3.38;100.00;100981.38;5093720;28;20040;-53
2022/01/31 01:57:23;;;;;;;13.02;6.03;;;;;;;3.30;100.00;100965.16;5093513;28;20056;-53
2022/01/31 01:59:55;;;;;;;13.93;6.20;;;;;;;3.24;100.00;100958.44;5091042;28;20773;-56
2022/01/31 02:02:24;;;;;;;14.50;5.60;;;;;;;3.24;100.00;100945.44;5090454;28;20073;-55
2022/01/31 02:04:53;;;;;;;12.32;6.03;;;;;;;3.29;100.00;100937.50;5092457;28;20044;-56
2022/01/31 02:07:21;;;;;;;13.82;6.05;;;;;;;3.30;100.00;100940.03;5093697;28;20044;-55
2022/01/31 02:09:54;;;;;;;12.05;5.78;;;;;;;3.26;100.00;100922.84;5093664;28;20556;-56
2022/01/31 02:12:23;;;;;;;13.60;5.75;;;;;;;3.32;100.00;100901.00;5093955;28;20056;-53
2022/01/31 02:14:51;;;;;;;16.00;7.18;;;;;;;3.32;100.00;100901.81;5093413;28;20725;-55
2022/01/31 02:17:20;;;;;;;13.77;6.25;;;;;;;3.31;100.00;100881.97;5093549;28;20043;-56
2022/01/31 02:19:49;;;;;;;11.00;6.03;;;;;;;3.38;100.00;100869.56;5093343;28;20059;-55
2022/01/31 02:22:18;;;;;;;15.48;6.00;;;;;;;3.33;100.00;100859.34;5093174;28;20043;-54
2022/01/31 02:24:46;;;;;;;12.15;5.80;;;;;;;3.38;100.00;100849.63;5093318;28;20048;-55
2022/01/31 02:27:14;;;;;;;12.25;6.22;;;;;;;3.40;100.00;100835.75;5092799;28;20505;-56
2022/01/31 02:29:43;;;;;;;16.10;6.53;;;;;;;3.37;100.00;100834.94;5092949;28;20105;-53
2022/01/31 02:32:12;;;;;;;18.85;7.88;;;;;;;3.42;100.00;100828.72;5092692;28;20051;-53
2022/01/31 02:34:40;;;;;;;13.18;6.10;;;;;;;3.43;100.00;100823.47;5088996;28;20048;-54
2022/01/31 02:37:10;;;;;;;13.68;6.65;;;;;;;3.42;100.00;100813.94;5090253;28;20064;-56
2022/01/31 02:39:39;;;;;;;14.10;6.82;;;;;;;3.46;100.00;100802.53;5089981;28;20055;-54
2022/01/31 02:42:08;;;;;;;17.20;6.93;;;;;;;3.42;100.00;100798.34;5088542;28;20039;-54
2022/01/31 02:44:40;;;;;;;15.50;7.43;;;;;;;3.46;100.00;100797.34;5092352;28;20102;-54
2022/01/31 02:47:13;;;;;;;15.90;7.28;;;;;;;3.56;100.00;100779.66;5092812;28;20138;-56
2022/01/31 02:49:48;;;;;;;22.13;7.70;;;;;;;3.56;100.00;100774.47;5092813;28;20043;-54
2022/01/31 02:52:17;;;;;;;15.73;7.30;;;;;;;3.64;100.00;100774.16;5092954;28;20044;-55
2022/01/31 02:54:47;;;;;;;15.38;6.95;;;;;;;3.61;100.00;100769.09;5092785;28;20052;-55
2022/01/31 02:57:15;;;;;;;17.00;7.82;;;;;;;3.65;100.00;100755.06;5092606;28;20135;-56
2022/01/31 02:59:44;;;;;;;16.70;7.35;;;;;;;3.67;100.00;100755.88;5092534;28;20055;-53
2022/01/31 03:02:12;;;;;;;12.98;6.72;;;;;;;3.75;100.00;100761.63;5092114;28;20540;-54
2022/01/31 03:04:40;;;;;;;15.90;6.75;;;;;;;3.77;100.00;100752.00;5092275;28;20109;-55
2022/01/31 03:07:08;;;;;;;13.52;6.03;;;;;;;3.84;100.00;100735.22;5092411;28;20043;-53
2022/01/31 03:09:36;;;;;;;13.90;6.25;;;;;;;3.86;100.00;100730.00;5091119;28;20097;-55
2022/01/31 03:12:08;;;;;;;16.67;6.50;;;;;;;3.90;100.00;100726.38;5092489;28;20048;-54
2022/01/31 03:14:36;;;;;;;16.30;6.35;;;;;;;3.97;100.00;100733.00;5092585;28;20062;-55
2022/01/31 03:17:06;;;;;;;16.38;6.50;;;;;;;3.99;100.00;100719.94;5092222;28;20052;-53
2022/01/31 03:19:37;;;;;;;15.88;6.07;;;;;;;4.06;100.00;100721.38;5092191;28;20050;-55
2022/01/31 03:22:07;;;;;;;12.65;6.03;;;;;;;4.05;100.00;100720.53;5091761;28;20494;-55
2022/01/31 03:24:35;;;;;;;12.68;6.20;;;;;;;4.08;100.00;100716.97;5092042;28;20109;-55
2022/01/31 03:27:03;;;;;;;16.73;7.45;;;;;;;4.13;100.00;100706.38;5092305;28;20040;-54
2022/01/31 03:29:33;;;;;;;19.25;6.78;;;;;;;4.16;100.00;100707.09;5092338;28;20478;-55
2022/01/31 03:32:01;;;;;;;14.80;6.28;;;;;;;4.21;100.00;100706.91;5092205;28;20060;-55
2022/01/31 03:34:29;;;;;;;13.82;5.63;;;;;;;4.30;100.00;100698.72;5092593;28;20055;-55
2022/01/31 03:36:57;;;;;;;10.20;5.00;;;;;;;4.28;100.00;100681.47;5092202;28;20101;-53
2022/01/31 03:39:26;;;;;;;18.65;5.40;;;;;;;4.26;100.00;100678.09;5093238;28;20050;-54
2022/01/31 03:41:54;;;;;;;11.50;4.32;;;;;;;4.35;100.00;100675.94;5096165;28;20040;-54
2022/01/31 03:44:22;;;;;;;15.80;5.30;;;;;;;4.37;100.00;100668.06;5096264;28;20048;-56
2022/01/31 03:46:52;;;;;;;13.80;4.82;;;;;;;4.35;100.00;100662.06;5096146;28;20063;-55
2022/01/31 03:49:21;;;;;;;16.63;4.53;;;;;;;4.44;100.00;100659.06;5096227;28;20048;-55
2022/01/31 03:51:49;;;;;;;12.65;4.05;;;;;;;4.47;100.00;100658.09;5096237;28;20498;-56
2022/01/31 03:54:17;;;;;;;17.20;3.97;;;;;;;4.51;100.00;100670.09;5095974;28;20123;-56
2022/01/31 03:56:45;;;;;;;14.15;3.58;;;;;;;4.54;100.00;100665.59;5096179;28;20431;-54
2022/01/31 03:59:13;;;;;;;15.07;3.15;;;;;;;4.63;100.00;100666.94;5095989;28;20494;-54
2022/01/31 04:01:41;;;;;;;14.63;2.90;;;;;;;4.62;100.00;100667.03;5094612;28;20079;-56
2022/01/31 04:04:12;;;;;;;16.98;2.70;;;;;;;4.69;100.00;100673.66;5096069;28;20379;-55
2022/01/31 04:06:41;;;;;;;13.18;2.92;;;;;;;4.74;100.00;100671.69;5095927;28;20050;-55
2022/01/31 04:09:09;;;;;;;13.85;2.40;;;;;;;4.74;100.00;100666.50;5096021;28;20098;-56
2022/01/31 04:11:37;;;;;;;16.88;2.50;;;;;;;4.74;100.00;100654.31;5096202;28;20044;-56
2022/01/31 04:14:06;;;;;;;15.48;2.25;;;;;;;4.77;100.00;100645.50;5095949;28;20044;-48
2022/01/31 04:16:34;;;;;;;17.83;2.97;;;;;;;4.87;100.00;100652.00;5095639;28;20048;-47
2022/01/31 04:19:02;;;;;;;14.45;2.55;;;;;;;4.91;100.00;100648.34;5095807;28;20051;-45
2022/01/31 04:21:32;;;;;;;11.80;2.30;;;;;;;4.88;100.00;100643.28;5095845;28;20089;-45
2022/01/31 04:24:00;;;;;;;10.35;2.28;;;;;;;4.85;100.00;100639.97;5095557;28;20160;-50
2022/01/31 04:26:32;;;;;;;9.75;1.95;;;;;;;4.84;100.00;100641.72;5095073;28;20051;-46
2022/01/31 04:29:07;;;;;;;22.42;2.90;;;;;;;4.84;100.00;100649.56;5095273;28;20052;-48
2022/01/31 04:31:39;;;;;;;14.20;2.47;;;;;;;4.88;100.00;100638.06;5095512;28;20052;-48
2022/01/31 04:34:09;;;;;;;13.20;2.33;;;;;;;4.88;100.00;100632.00;5095605;28;20044;-47
2022/01/31 04:36:38;;;;;;;12.30;2.75;;;;;;;4.87;100.00;100630.34;5095405;28;20036;-51
2022/01/31 04:39:06;;;;;;;12.32;2.10;;;;;;;4.83;100.00;100636.59;5095144;28;20545;-48
2022/01/31 04:41:34;;;;;;;14.73;2.47;;;;;;;4.83;100.00;100623.56;5095409;28;20486;-50
2022/01/31 04:44:06;;;;;;;11.60;2.22;;;;;;;4.81;100.00;100635.81;5095299;28;20122;-50
2022/01/31 04:46:35;;;;;;;13.23;2.97;;;;;;;4.79;100.00;100625.44;5095135;28;20563;-50
2022/01/31 04:49:03;;;;;;;8.77;1.70;;;;;;;4.77;100.00;100626.44;5095246;28;20048;-45
2022/01/31 04:51:31;;;;;;;12.75;2.03;;;;;;;4.79;100.00;100633.25;5094709;28;20051;-54
2022/01/31 04:54:01;;;;;;;10.45;1.98;;;;;;;4.80;100.00;100639.31;5094532;28;20054;-55
2022/01/31 04:56:29;;;;;;;13.57;2.47;;;;;;;4.78;100.00;100621.16;5094541;28;20551;-55
2022/01/31 04:58:57;;;;;;;13.40;2.92;;;;;;;4.86;100.00;100626.84;5094913;28;20498;-56
2022/01/31 05:01:26;;;;;;;9.20;1.90;;;;;;;4.89;100.00;100629.34;5094801;28;20401;-55
2022/01/31 05:03:54;;;;;;;14.85;1.98;;;;;;;4.87;100.00;100620.75;5094839;28;20048;-55
2022/01/31 05:06:29;;;;;;;11.68;2.58;;;;;;;4.88;100.00;100606.81;5094711;28;20428;-55
2022/01/31 05:08:57;;;;;;;15.75;2.17;;;;;;;4.82;100.00;100603.63;5094628;28;20052;-54
2022/01/31 05:11:27;;;;;;;13.38;2.30;;;;;;;4.80;100.00;100598.47;5094700;28;20044;-49
2022/01/31 05:13:55;;;;;;;19.88;2.50;;;;;;;4.79;100.00;100590.75;5094961;28;20062;-46
2022/01/31 05:16:23;;;;;;;16.00;2.45;;;;;;;4.79;100.00;100588.97;5094550;28;20048;-49
2022/01/31 05:18:51;;;;;;;11.23;2.00;;;;;;;4.80;100.00;100577.63;5094437;28;20416;-47
2022/01/31 05:21:19;;;;;;;13.40;2.22;;;;;;;4.79;100.00;100581.16;5094438;28;20048;-46
2022/01/31 05:23:49;;;;;;;15.63;2.58;;;;;;;4.83;100.00;100572.28;5094593;28;20101;-44
2022/01/31 05:26:17;;;;;;;16.48;2.90;;;;;;;4.78;100.00;100576.84;5094478;28;20044;-47
2022/01/31 05:28:47;;;;;;;13.90;2.33;;;;;;;4.78;100.00;100582.06;5094412;28;20128;-47
2022/01/31 05:31:15;;;;;;;19.83;2.90;;;;;;;4.74;100.00;100559.66;5094221;28;20047;-49
2022/01/31 05:33:43;;;;;;;8.02;2.15;;;;;;;4.79;100.00;100557.69;5094266;28;20560;-45
2022/01/31 05:36:11;;;;;;;12.02;2.10;;;;;;;4.73;100.00;100561.44;5094132;28;20058;-48
2022/01/31 05:38:40;;;;;;;14.57;2.65;;;;;;;4.74;100.00;100557.94;5094344;28;20048;-51
2022/01/31 05:41:11;;;;;;;18.83;3.15;;;;;;;4.79;100.00;100555.09;5094144;28;20115;-44
2022/01/31 05:43:39;;;;;;;11.38;2.03;;;;;;;4.79;100.00;100570.72;5093027;28;20048;-45
2022/01/31 05:46:09;;;;;;;12.75;2.45;;;;;;;4.71;100.00;100578.88;5092728;28;20071;-47
2022/01/31 05:48:37;;;;;;;10.25;2.30;;;;;;;4.69;100.00;100575.50;5094052;28;20086;-45
2022/01/31 05:51:14;;;;;;;16.30;2.17;;;;;;;4.60;100.00;100580.28;5094058;28;20066;-49
2022/01/31 05:53:44;;;;;;;11.20;1.90;;;;;;;4.49;100.00;100585.97;5094024;28;20052;-48
2022/01/31 05:56:12;;;;;;;9.30;1.42;;;;;;;4.37;100.00;100592.56;5094073;28;20047;-46
2022/01/31 05:58:41;;;;;;;8.65;1.30;;;;;;;4.22;100.00;100581.88;5093662;28;20044;-47
2022/01/31 06:01:11;;;;;;;7.70;1.27;;;;;;;4.25;100.00;100569.66;5093936;28;20529;-46
2022/01/31 06:03:40;;;;;;;5.40;1.55;;;;;;;4.20;100.00;100565.50;5093370;28;20048;-49
2022/01/31 06:06:08;;;;;;;5.88;1.17;;;;;;;4.16;100.00;100566.53;5093172;28;20059;-50
2022/01/31 06:08:36;;;;;;;9.10;2.05;;;;;;;4.09;100.00;100575.53;5093147;28;20040;-50
2022/01/31 06:11:04;;;;;;;9.68;1.00;;;;;;;4.09;100.00;100575.53;5093546;28;20056;-51
2022/01/31 06:13:33;;;;;;;9.25;2.10;;;;;;;3.99;100.00;100575.03;5093494;28;20044;-51
2022/01/31 06:16:02;;;;;;;14.25;1.85;;;;;;;3.98;100.00;100569.91;5093550;28;20082;-46
2022/01/31 06:18:35;;;;;;;7.15;1.08;;;;;;;3.94;100.00;100568.34;5093306;28;20382;-51
2022/01/31 06:21:04;;;;;;;8.18;1.65;;;;;;;3.91;100.00;100558.91;5093266;28;20052;-50
2022/01/31 06:23:32;;;;;;;7.40;1.55;;;;;;;3.93;100.00;100569.25;5093192;28;20130;-49
2022/01/31 06:26:00;;;;;;;7.05;1.45;;;;;;;3.95;100.00;100565.66;5092905;28;20040;-49
2022/01/31 06:28:28;;;;;;;9.25;1.55;;;;;;;3.91;100.00;100577.13;5093046;28;20443;-48
2022/01/31 06:30:56;;;;;;;8.35;1.60;;;;;;;3.88;100.00;100569.44;5092842;28;20047;-48
2022/01/31 06:33:25;;;;;;;9.45;1.77;;;;;;;3.84;100.00;100558.31;5092869;28;20497;-49
2022/01/31 06:35:55;;;;;;;7.78;1.70;;;;;;;3.85;100.00;100551.38;5093029;28;20052;-45
2022/01/31 06:38:23;;;;;;;9.57;1.98;;;;;;;3.88;100.00;100546.88;5092949;28;20048;-45
2022/01/31 06:40:51;;;;;;;10.52;2.53;;;;;;;3.89;100.00;100548.56;5093106;28;20044;-47
2022/01/31 06:43:19;;;;;;;11.45;2.17;;;;;;;3.94;100.00;100555.31;5093173;28;20380;-45
2022/01/31 06:45:47;;;;;;;12.63;2.10;;;;;;;3.91;100.00;100539.84;5091393;28;20048;-47
2022/01/31 06:48:16;;;;;;;12.18;2.10;;;;;;;3.92;100.00;100531.16;5092754;28;20040;-48
2022/01/31 06:50:44;;;;;;;10.75;3.28;;;;;;;3.95;100.00;100536.22;5092175;28;20048;-47
2022/01/31 06:53:16;;;;;;;13.38;2.10;;;;;;;3.99;100.00;100537.78;5092644;28;20514;-45
2022/01/31 06:55:44;;;;;;;13.35;1.90;;;;;;;4.00;100.00;100527.28;5093140;28;20040;-47
2022/01/31 06:58:12;;;;;;;14.85;2.38;;;;;;;4.02;100.00;100529.81;5092809;28;20036;-48
2022/01/31 07:00:40;;;;;;;13.32;2.65;;;;;;;4.06;100.00;100526.19;5092875;28;20052;-45
2022/01/31 07:03:12;;;;;;;13.27;2.13;;;;;;;4.09;100.00;100527.81;5092575;28;20044;-47
2022/01/31 07:05:41;;;;;;;13.27;2.40;;;;;;;4.13;100.00;100531.97;5092828;28;20494;-47
2022/01/31 07:08:13;;;;;;;16.13;2.53;;;;;;;4.10;100.00;100517.31;5092615;28;20048;-46
2022/01/31 07:10:49;;;;;;;11.55;2.22;;;;;;;4.11;100.00;100524.22;5092934;28;20079;-51
2022/01/31 07:13:35;;;;;;;13.68;1.90;;;;;;;4.11;100.00;100526.00;5092252;28;20050;-47
2022/01/31 07:16:03;;;;;;;11.43;2.53;;;;;;;4.13;100.00;100521.56;5092037;28;20051;-48
2022/01/31 07:18:33;;;;;;;8.57;2.00;;;;;;;4.12;100.00;100518.13;5092449;28;20071;-48
2022/01/31 07:21:01;;;;;;;14.20;2.03;;;;;;;4.11;100.00;100521.63;5091311;28;20060;-49
2022/01/31 07:23:49;;;;;;;15.73;2.40;;;;;;;4.11;100.00;100519.03;5092565;28;20490;-48
2022/01/31 07:26:18;;;;;;;10.60;1.70;;;;;;;4.09;100.00;100497.44;5092361;28;20379;-48
2022/01/31 07:28:46;;;;;;;11.90;2.08;;;;;;;4.12;100.00;100486.88;5092435;28;20044;-49
2022/01/31 07:31:16;;;;;;;12.85;1.65;;;;;;;4.12;100.00;100484.28;5092308;28;20048;-48
2022/01/31 07:33:44;;;;;;;10.50;2.10;;;;;;;4.14;100.00;100494.63;5092395;28;20071;-48
2022/01/31 07:36:12;;;;;;;17.92;2.17;;;;;;;4.13;100.00;100493.78;5092303;28;20085;-49
2022/01/31 07:38:43;;;;;;;12.05;2.10;;;;;;;4.16;100.00;100492.78;5092034;28;20060;-49
2022/01/31 07:41:14;;;;;;;14.75;2.75;;;;;;;4.13;100.00;100499.00;5092548;28;20066;-50
2022/01/31 07:43:43;;;;;;;15.07;2.40;;;;;;;4.13;100.00;100478.19;5092098;28;20048;-52
2022/01/31 07:46:12;;;;;;;14.82;1.88;;;;;;;4.08;100.00;100495.75;5091977;28;20075;-46
2022/01/31 07:48:41;;;;;;;13.65;1.90;;;;;;;4.12;100.00;100501.63;5092239;28;20132;-51
2022/01/31 07:51:09;;;;;;;10.45;2.65;;;;;;;4.18;100.00;100486.59;5091881;28;20059;-47
2022/01/31 07:53:38;;;;;;;18.02;1.92;;;;;;;4.16;100.00;100498.84;5091721;28;20493;-49
2022/01/31 07:56:09;;;;;;;19.90;2.65;;;;;;;4.10;100.00;100496.50;5092161;28;20064;-50
2022/01/31 07:58:38;;;;;;;11.88;1.90;;;;;;;4.12;100.00;100486.03;5090946;28;20044;-46
2022/01/31 08:01:07;;;;;;;9.98;2.00;;;;;;;4.12;100.00;100501.63;5092071;28;20047;-50
2022/01/31 08:03:36;;;;;;;14.50;1.92;;;;;;;4.11;100.00;100503.41;5092113;28;20090;-48
2022/01/31 08:06:05;;;;;;;15.90;2.83;;;;;;;4.09;100.00;100510.47;5091999;28;20101;-50
2022/01/31 08:08:34;;;;;;;15.63;1.73;;;;;;;4.09;100.00;100518.25;5091500;28;20048;-47
2022/01/31 08:11:05;;;;;;;11.93;2.45;;;;;;;4.10;100.00;100506.91;5091973;28;20481;-49
2022/01/31 08:13:36;;;;;;;10.02;2.13;;;;;;;4.12;100.00;100506.84;5090748;28;20505;-49
2022/01/31 08:16:10;;;;;;;13.65;2.40;;;;;;;4.11;100.00;100499.97;5091903;28;20051;-48
2022/01/31 08:18:41;;;;;;;19.05;2.53;;;;;;;4.12;100.00;100479.09;5092006;28;20097;-48
2022/01/31 08:21:11;;;;;;;19.20;2.35;;;;;;;4.17;100.00;100489.28;5107566;28;20508;-46
2022/01/31 08:23:39;;;;;;;17.65;3.00;;;;;;;4.17;100.00;100497.94;5091929;28;20040;-50
2022/01/31 08:26:12;;;;;;;16.30;2.78;;;;;;;4.19;100.00;100490.06;5094016;28;20560;-51
2022/01/31 08:28:44;;;;;;;13.65;2.45;;;;;;;4.23;100.00;100505.47;5095442;28;20405;-51
2022/01/31 08:31:16;;;;;;;17.35;2.38;;;;;;;4.25;100.00;100514.97;5095447;28;20101;-49
2022/01/31 08:33:49;;;;;;;18.77;3.35;;;;;;;4.23;100.00;100502.88;5095851;28;20048;-48
2022/01/31 08:36:18;;;;;;;15.35;2.60;;;;;;;4.23;100.00;100515.06;5095756;28;20048;-50
2022/01/31 08:38:47;;;;;;;16.13;2.33;;;;;;;4.23;100.00;100510.69;5095450;28;20047;-47
2022/01/31 08:41:16;;;;;;;17.48;2.13;;;;;;;4.27;100.00;100489.72;5095722;28;20052;-52
2022/01/31 08:43:45;;;;;;;14.25;3.20;;;;;;;4.34;100.00;100498.97;5094552;28;20040;-46
2022/01/31 08:46:14;;;;;;;13.93;2.25;;;;;;;4.28;100.00;100497.47;5091785;28;20076;-46
2022/01/31 08:48:43;;;;;;;10.75;2.15;;;;;;;4.31;100.00;100507.75;5093699;28;20386;-48
2022/01/31 08:51:12;;;;;;;15.57;2.72;;;;;;;4.33;100.00;100485.06;5093766;28;20430;-48
2022/01/31 08:53:41;;;;;;;11.98;1.98;;;;;;;4.33;100.00;100515.50;5094963;28;20127;-49
2022/01/31 08:56:12;;;;;;;16.00;2.83;;;;;;;4.36;100.00;100525.75;5095079;28;20359;-49
2022/01/31 08:58:45;;;;;;;19.77;2.22;;;;;;;4.41;100.00;100518.59;5094910;28;20043;-48
2022/01/31 09:01:17;;;;;;;19.98;3.03;;;;;;;4.39;100.00;100500.44;5095208;28;20129;-52
2022/01/31 09:04:01;;;;;;;18.38;2.70;;;;;;;4.40;100.00;100499.53;5094923;28;20097;-49
2022/01/31 09:06:31;;;;;;;19.42;2.25;;;;;;;4.42;100.00;100504.66;5094892;28;20052;-52
2022/01/31 09:09:00;;;;;;;21.52;3.90;;;;;;;4.43;100.00;100495.09;5094938;28;20086;-47
2022/01/31 09:11:29;;;;;;;17.70;2.40;;;;;;;4.40;100.00;100496.06;5094760;28;20059;-49
2022/01/31 09:13:58;;;;;;;15.07;2.22;;;;;;;4.39;100.00;100507.38;5094671;28;20044;-51
2022/01/31 09:16:27;;;;;;;17.20;2.85;;;;;;;4.40;100.00;100499.53;5094401;28;20116;-49
2022/01/31 09:18:56;;;;;;;20.17;2.88;;;;;;;4.40;100.00;100506.47;5094338;28;20099;-47
2022/01/31 09:21:24;;;;;;;16.08;2.90;;;;;;;4.41;100.00;100518.59;5093430;28;20047;-48
2022/01/31 09:23:53;;;;;;;19.42;2.45;;;;;;;4.37;100.00;100519.66;5094635;28;20097;-47
2022/01/31 09:26:23;;;;;;;19.17;2.45;;;;;;;4.36;100.00;100516.22;5094504;28;20052;-48
2022/01/31 09:28:52;;;;;;;18.08;2.47;;;;;;;4.34;100.00;100511.97;5094594;28;20386;-49
2022/01/31 09:31:21;;;;;;;19.95;3.05;;;;;;;4.34;100.00;100514.59;5094214;28;20048;-46
2022/01/31 09:33:51;;;;;;;19.20;3.50;;;;;;;4.34;100.00;100507.59;5090286;28;20039;-51
2022/01/31 09:36:22;;;;;;;14.75;2.30;;;;;;;4.35;100.00;100518.84;5091730;28;20044;-48
2022/01/31 09:38:50;;;;;;;19.05;3.40;;;;;;;4.36;100.00;100523.16;5093614;28;20044;-49
2022/01/31 09:41:22;;;;;;;26.50;2.67;;;;;;;4.36;100.00;100544.00;5094111;28;20052;-49
2022/01/31 09:44:05;;;;;;;17.83;3.42;;;;;;;4.38;100.00;100561.22;5093367;28;20398;-51
2022/01/31 09:49:23;;;;;;;20.92;3.65;;;;;;;4.41;100.00;100565.47;5092648;28;20086;-48
2022/01/31 09:51:51;;;;;;;23.70;3.42;;;;;;;4.45;100.00;100554.00;5093933;28;20051;-49
2022/01/31 09:54:20;;;;;;;20.08;2.97;;;;;;;4.47;100.00;100580.84;5094072;28;20112;-48
2022/01/31 09:56:48;;;;;;;21.95;3.80;;;;;;;4.47;100.00;100593.88;5093935;28;20050;-45
2022/01/31 09:59:18;;;;;;;26.05;3.15;;;;;;;4.46;100.00;100599.97;5092223;28;20048;-46
2022/01/31 10:01:49;;;;;;;16.40;3.10;;;;;;;4.46;100.00;100589.56;5090400;28;20070;-50
2022/01/31 10:04:19;;;;;;;22.58;3.40;;;;;;;4.43;100.00;100613.13;5092969;28;20338;-49
2022/01/31 10:06:50;;;;;;;24.40;3.92;;;;;;;4.40;100.00;100602.81;5093755;28;20047;-45
2022/01/31 10:09:20;;;;;;;21.92;3.83;;;;;;;4.40;100.00;100621.06;5093797;28;20052;-47
2022/01/31 10:11:51;;;;;;;38.42;4.05;;;;;;;4.37;100.00;100621.19;5093665;28;20068;-45
2022/01/31 10:17:09;;;;;;;22.48;3.83;;;;;;;4.39;100.00;100628.03;5093397;28;20059;-46
2022/01/31 10:19:50;;;;;;;30.15;3.80;;;;;;;4.43;100.00;100654.81;5093344;28;20127;-45
2022/01/31 10:22:21;;;;;;;26.80;3.38;;;;;;;4.43;100.00;100640.91;5093217;28;20555;-45
2022/01/31 10:24:51;;;;;;;22.90;3.95;;;;;;;4.43;100.00;100652.19;5093242;28;20058;-45
2022/01/31 10:27:21;;;;;;;18.58;3.63;;;;;;;4.44;100.00;100653.88;5093288;28;20048;-45
2022/01/31 10:29:51;;;;;;;23.23;3.88;;;;;;;4.47;100.00;100664.19;5093271;28;20591;-44
2022/01/31 10:32:27;;;;;;;20.38;5.45;;;;;;;4.51;100.00;100681.38;5093130;28;20058;-48
2022/01/31 10:34:58;;;;;;;31.35;4.10;;;;;;;4.53;100.00;100673.47;5093215;28;20090;-46
2022/01/31 10:37:31;;;;;;;29.65;4.25;;;;;;;4.54;100.00;100682.97;5093253;28;20056;-47
2022/01/31 10:54:39;;;;;;;22.52;3.88;;;;;;;4.65;100.00;100677.31;5074115;28;20513;-51
2022/01/31 10:57:13;;;;;;;26.75;3.85;;;;;;;4.63;100.00;100684.34;5089014;28;20486;-57
2022/01/31 10:59:44;;;;;;;21.60;3.70;;;;;;;4.62;100.00;100693.94;5092597;28;20131;-46
2022/01/31 11:02:16;;;;;;;34.92;3.92;;;;;;;4.65;100.00;100704.22;5092478;28;20071;-53
2022/01/31 11:04:45;;;;;;;19.50;3.75;;;;;;;4.67;100.00;100689.34;5092787;28;20056;-48
2022/01/31 11:07:15;;;;;;;28.17;3.13;;;;;;;4.68;100.00;100708.44;5088938;28;20497;-46
2022/01/31 11:09:46;;;;;;;25.98;3.08;;;;;;;4.69;100.00;100717.94;5088635;28;20519;-49
2022/01/31 11:12:14;;;;;;;15.23;3.10;;;;;;;4.71;100.00;100731.75;5092730;28;20054;-52
2022/01/31 11:14:45;;;;;;;22.35;3.03;;;;;;;4.72;100.00;100723.03;5092218;28;20044;-54
2022/01/31 11:17:15;;;;;;;20.02;2.55;;;;;;;4.77;100.00;100739.31;5090982;28;20079;-48
2022/01/31 11:19:47;;;;;;;24.17;3.28;;;;;;;4.71;100.00;100729.16;5092379;28;20471;-50
2022/01/31 11:22:26;;;;;;;16.35;3.35;;;;;;;4.76;100.00;100731.56;5089771;28;20131;-47
2022/01/31 11:25:16;;;;;;;22.40;2.92;;;;;;;4.70;100.00;100730.06;5087556;28;20044;-48
2022/01/31 11:27:51;;;;;;;25.10;3.20;;;;;;;4.74;100.00;100736.84;5090742;28;20123;-55
2022/01/31 11:30:21;;;;;;;17.48;2.60;;;;;;;4.73;100.00;100741.22;5092694;28;20494;-45
2022/01/31 11:32:49;;;;;;;16.55;3.03;;;;;;;4.73;100.00;100742.94;5092438;28;20547;-54
2022/01/31 11:35:17;;;;;;;15.93;2.72;;;;;;;4.74;100.00;100729.03;5092184;28;20135;-55
2022/01/31 11:37:45;;;;;;;16.83;3.20;;;;;;;4.73;100.00;100748.16;5092244;28;20104;-55
2022/01/31 11:40:16;;;;;;;15.68;3.08;;;;;;;4.74;100.00;100748.13;5090825;28;20056;-45
2022/01/31 11:42:47;;;;;;;14.93;2.63;;;;;;;4.68;100.00;100737.94;5088237;28;20051;-52
2022/01/31 11:45:17;;;;;;;15.15;2.58;;;;;;;4.76;100.00;100749.78;5088710;28;20040;-44
2022/01/31 11:47:49;;;;;;;13.15;2.30;;;;;;;4.75;100.00;100738.53;5092003;28;20062;-47
2022/01/31 11:50:19;;;;;;;14.00;2.93;;;;;;;4.70;100.00;100746.56;5092226;28;20130;-46